createdAt,value
2023-04-08T00:01:14.819Z,99730.31
2023-04-08T00:03:42.984Z,99732.41
2023-04-08T00:06:12.134Z,99734.31
2023-04-08T00:08:40.176Z,99738.56
2023-04-08T00:11:08.296Z,99734.97
2023-04-08T00:13:38.053Z,99729.75
2023-04-08T00:16:06.415Z,99726.47
2023-04-08T00:18:34.486Z,99732.97
2023-04-08T00:21:02.571Z,99739.06
2023-04-08T00:23:30.698Z,99735.97
2023-04-08T00:25:58.788Z,99747.06
2023-04-08T00:28:26.975Z,99747.97
2023-04-08T00:30:57.533Z,99749.63
2023-04-08T00:33:26.099Z,99741.59
2023-04-08T00:35:54.433Z,99743.13
2023-04-08T00:38:22.596Z,99742.16
2023-04-08T00:40:50.817Z,99741.78
2023-04-08T00:43:20.917Z,99740.34
2023-04-08T00:45:49.486Z,99734.66
2023-04-08T00:48:19.088Z,99736.25
2023-04-08T00:50:47.369Z,99743.22
2023-04-08T00:53:19.016Z,99749.13
2023-04-08T00:55:47.429Z,99760.59
2023-04-08T00:58:16.614Z,99757.09
2023-04-08T01:00:51.401Z,99755.03
2023-04-08T01:03:29.596Z,99751.66
2023-04-08T01:06:04.448Z,99760.72
2023-04-08T01:08:34.219Z,99771.63
2023-04-08T01:11:04.766Z,99769.56
2023-04-08T01:13:38.838Z,99767.34
2023-04-08T01:16:08.237Z,99771.16
2023-04-08T01:18:39.233Z,99768.91
2023-04-08T01:21:08.929Z,99774.69
2023-04-08T01:23:44.527Z,99775.28
2023-04-08T01:26:22.488Z,99771.47
2023-04-08T01:28:53.793Z,99763.25
2023-04-08T01:31:23.953Z,99763.06
2023-04-08T01:33:53.494Z,99765.47
2023-04-08T01:36:22.788Z,99761.00
2023-04-08T01:38:51.972Z,99770.72
2023-04-08T01:41:22.505Z,99762.00
2023-04-08T01:43:52.153Z,99771.81
2023-04-08T01:46:22.047Z,99772.63
2023-04-08T01:48:52.164Z,99769.75
2023-04-08T01:51:21.407Z,99779.16
2023-04-08T01:53:49.525Z,99774.56
2023-04-08T01:56:18.414Z,99774.44
2023-04-08T01:58:53.016Z,99784.25
2023-04-08T02:01:24.357Z,99783.44
2023-04-08T02:03:56.572Z,99785.34
2023-04-08T02:06:25.914Z,99793.41
2023-04-08T02:08:55.375Z,99788.97
2023-04-08T02:11:23.945Z,99788.38
2023-04-08T02:13:54.742Z,99780.59
2023-04-08T02:16:25.754Z,99788.06
2023-04-08T02:18:58.339Z,99786.47
2023-04-08T02:21:34.432Z,99790.78
2023-04-08T02:24:06.259Z,99795.06
2023-04-08T02:26:36.213Z,99807.44
2023-04-08T02:29:07.725Z,99797.94
2023-04-08T02:31:36.825Z,99797.63
2023-04-08T02:34:07.243Z,99793.50
2023-04-08T02:36:36.185Z,99800.78
2023-04-08T02:39:04.646Z,99796.66
2023-04-08T02:41:32.979Z,99795.09
2023-04-08T02:44:01.054Z,99795.09
2023-04-08T02:46:30.453Z,99793.06
2023-04-08T02:48:58.680Z,99793.34
2023-04-08T02:51:27.994Z,99788.09
2023-04-08T02:53:56.281Z,99795.25
2023-04-08T02:56:24.409Z,99802.72
2023-04-08T02:58:52.612Z,99803.50
2023-04-08T03:01:20.859Z,99801.59
2023-04-08T03:03:50.685Z,99808.41
2023-04-08T03:06:18.862Z,99811.09
2023-04-08T03:08:48.080Z,99817.13
2023-04-08T03:11:16.302Z,99826.47
2023-04-08T03:13:44.512Z,99823.00
2023-04-08T03:16:12.660Z,99816.34
2023-04-08T03:18:41.108Z,99813.94
2023-04-08T03:21:10.859Z,99816.50
2023-04-08T03:23:38.972Z,99828.06
2023-04-08T03:26:07.216Z,99827.41
2023-04-08T03:28:35.808Z,99821.72
2023-04-08T03:31:05.098Z,99820.13
2023-04-08T03:33:33.373Z,99817.28
2023-04-08T03:36:01.507Z,99823.44
2023-04-08T03:38:31.358Z,99823.59
2023-04-08T03:40:59.947Z,99824.09
2023-04-08T03:43:28.157Z,99821.88
2023-04-08T03:45:57.338Z,99820.16
2023-04-08T03:48:25.449Z,99818.53
2023-04-08T03:50:53.684Z,99828.69
2023-04-08T03:53:21.884Z,99823.00
2023-04-08T03:55:52.194Z,99833.63
2023-04-08T03:58:20.468Z,99833.47
2023-04-08T04:00:49.978Z,99835.69
2023-04-08T04:03:18.685Z,99828.69
2023-04-08T04:05:46.908Z,99834.25
2023-04-08T04:08:14.978Z,99834.25
2023-04-08T04:10:43.104Z,99840.44
2023-04-08T04:13:12.633Z,99838.38
2023-04-08T04:15:41.158Z,99835.69
2023-04-08T04:18:09.442Z,99845.34
2023-04-08T04:20:40.913Z,99847.25
2023-04-08T04:23:09.056Z,99839.47
2023-04-08T04:25:39.543Z,99846.47
2023-04-08T04:28:08.138Z,99846.59
2023-04-08T04:30:39.615Z,99848.16
2023-04-08T04:33:08.028Z,99842.94
2023-04-08T04:35:36.239Z,99851.16
2023-04-08T04:38:05.762Z,99842.75
2023-04-08T04:40:34.759Z,99852.25
2023-04-08T04:43:03.057Z,99842.78
2023-04-08T04:45:31.334Z,99843.91
2023-04-08T04:48:00.933Z,99844.84
2023-04-08T04:50:29.093Z,99849.44
2023-04-08T04:52:57.134Z,99855.63
2023-04-08T04:55:27.971Z,99847.25
2023-04-08T04:57:56.136Z,99847.88
2023-04-08T05:00:24.420Z,99856.75
2023-04-08T05:02:52.831Z,99858.47
2023-04-08T05:05:22.666Z,99858.00
2023-04-08T05:07:50.882Z,99856.09
2023-04-08T05:10:19.255Z,99855.47
2023-04-08T05:12:47.298Z,99858.81
2023-04-08T05:15:15.805Z,99864.19
2023-04-08T05:17:44.006Z,99869.09
2023-04-08T05:20:17.724Z,99870.88
2023-04-08T05:22:47.394Z,99874.47
2023-04-08T05:25:15.692Z,99879.66
2023-04-08T05:27:43.885Z,99878.84
2023-04-08T05:30:12.864Z,99877.00
2023-04-08T05:32:41.186Z,99882.84
2023-04-08T05:35:10.845Z,99876.31
2023-04-08T05:37:38.910Z,99881.97
2023-04-08T05:40:09.775Z,99880.16
2023-04-08T05:42:38.020Z,99885.03
2023-04-08T05:45:07.180Z,99879.28
2023-04-08T05:47:35.382Z,99886.44
2023-04-08T05:50:03.856Z,99882.59
2023-04-08T05:52:31.909Z,99891.59
2023-04-08T05:54:59.957Z,99891.34
2023-04-08T05:57:29.455Z,99893.56
2023-04-08T05:59:57.652Z,99884.41
2023-04-08T06:02:26.102Z,99885.59
2023-04-08T06:04:54.490Z,99881.66
2023-04-08T06:07:22.669Z,99886.03
2023-04-08T06:09:50.888Z,99886.94
2023-04-08T06:12:19.203Z,99886.81
2023-04-08T06:14:48.730Z,99888.09
2023-04-08T06:17:16.862Z,99884.88
2023-04-08T06:19:44.933Z,99891.00
2023-04-08T06:22:13.031Z,99885.00
2023-04-08T06:24:41.320Z,99887.66
2023-04-08T06:27:09.553Z,99890.50
2023-04-08T06:29:37.706Z,99898.06
2023-04-08T06:32:07.869Z,99891.44
2023-04-08T06:34:36.157Z,99886.03
2023-04-08T06:37:04.689Z,99889.75
2023-04-08T06:39:32.934Z,99894.78
2023-04-08T06:42:01.735Z,99891.88
2023-04-08T06:44:31.433Z,99888.56
2023-04-08T06:46:59.536Z,99889.56
2023-04-08T06:49:30.856Z,99890.88
2023-04-08T06:51:59.045Z,99893.84
2023-04-08T06:54:27.157Z,99886.78
2023-04-08T06:56:55.472Z,99889.41
2023-04-08T06:59:23.766Z,99894.03
2023-04-08T07:01:52.010Z,99890.34
2023-04-08T07:04:21.124Z,99887.00
2023-04-08T07:06:51.152Z,99889.56
2023-04-08T07:09:19.616Z,99891.41
2023-04-08T07:11:47.825Z,99885.53
2023-04-08T07:14:16.083Z,99887.41
2023-04-08T07:16:44.403Z,99890.22
2023-04-08T07:19:12.581Z,99886.13
2023-04-08T07:21:41.625Z,99892.91
2023-04-08T07:24:11.360Z,99891.06
2023-04-08T07:26:39.926Z,99892.16
2023-04-08T07:29:08.139Z,99895.16
2023-04-08T07:31:36.223Z,99905.97
2023-04-08T07:34:04.329Z,99904.56
2023-04-08T07:36:32.630Z,99894.28
2023-04-08T07:39:01.114Z,99891.09
2023-04-08T07:41:30.781Z,99891.78
2023-04-08T07:43:59.047Z,99882.00
2023-04-08T07:46:27.183Z,99880.41
2023-04-08T07:48:55.387Z,99884.53
2023-04-08T07:51:23.716Z,99882.84
2023-04-08T07:53:52.026Z,99885.31
2023-04-08T07:56:20.324Z,99882.34
2023-04-08T07:58:53.321Z,99889.66
2023-04-08T08:01:23.854Z,99889.50
2023-04-08T08:03:53.761Z,99888.66
2023-04-08T08:06:22.677Z,99889.13
2023-04-08T08:08:50.843Z,99892.13
2023-04-08T08:11:19.028Z,99897.50
2023-04-08T08:13:47.090Z,99892.06
2023-04-08T08:16:16.952Z,99896.38
2023-04-08T08:18:45.122Z,99895.41
2023-04-08T08:21:13.312Z,99895.88
2023-04-08T08:23:41.374Z,99898.59
2023-04-08T08:26:11.143Z,99893.09
2023-04-08T08:28:42.432Z,99886.03
2023-04-08T08:31:10.596Z,99890.97
2023-04-08T08:33:40.136Z,99887.66
2023-04-08T08:36:08.519Z,99897.63
2023-04-08T08:38:36.855Z,99884.66
2023-04-08T08:41:05.213Z,99880.09
2023-04-08T08:43:34.757Z,99881.69
2023-04-08T08:46:03.779Z,99883.28
2023-04-08T08:48:34.155Z,99878.75
2023-04-08T08:51:09.322Z,99882.53
2023-04-08T08:53:37.891Z,99878.44
2023-04-08T08:56:17.870Z,99879.56
2023-04-08T08:58:47.812Z,99876.78
2023-04-08T09:01:35.782Z,99872.69
2023-04-08T09:04:23.070Z,99882.69
2023-04-08T09:07:10.682Z,99877.69
2023-04-08T09:09:51.409Z,99877.59
2023-04-08T09:12:20.379Z,99872.75
2023-04-08T09:14:48.842Z,99871.31
2023-04-08T09:17:17.523Z,99881.91
2023-04-08T09:20:10.067Z,99878.38
2023-04-08T09:22:58.137Z,99873.31
2023-04-08T09:25:27.880Z,99873.13
2023-04-08T09:27:56.581Z,99872.88
2023-04-08T09:30:26.539Z,99874.53
2023-04-08T09:32:57.908Z,99874.16
2023-04-08T09:35:26.741Z,99875.22
2023-04-08T09:37:56.617Z,99872.22
2023-04-08T09:40:28.847Z,99873.63
2023-04-08T09:43:00.086Z,99871.28
2023-04-08T09:45:29.165Z,99881.31
2023-04-08T09:48:05.532Z,99870.66
2023-04-08T09:50:34.888Z,99870.25
2023-04-08T09:53:15.531Z,99872.03
2023-04-08T09:55:47.852Z,99874.91
2023-04-08T09:58:20.932Z,99876.25
2023-04-08T10:00:51.723Z,99879.25
2023-04-08T10:03:31.039Z,99873.47
2023-04-08T10:06:02.491Z,99878.91
2023-04-08T10:08:33.105Z,99877.88
2023-04-08T10:11:01.287Z,99872.03
2023-04-08T10:13:30.142Z,99870.19
2023-04-08T10:16:24.519Z,99863.00
2023-04-08T10:18:56.032Z,99856.66
2023-04-08T10:21:37.712Z,99860.47
2023-04-08T10:24:11.984Z,99864.19
2023-04-08T10:26:59.712Z,99862.16
2023-04-08T10:29:50.860Z,99853.09
2023-04-08T10:32:31.356Z,99847.09
2023-04-08T10:34:59.518Z,99850.59
2023-04-08T10:37:28.856Z,99849.50
2023-04-08T10:39:58.817Z,99846.97
2023-04-08T10:42:30.509Z,99838.56
2023-04-08T10:45:03.491Z,99841.53
2023-04-08T10:47:32.501Z,99828.75
2023-04-08T10:50:01.453Z,99834.78
2023-04-08T10:52:29.562Z,99830.13
2023-04-08T10:54:59.238Z,99825.97
2023-04-08T10:57:27.477Z,99821.72
2023-04-08T10:59:56.337Z,99814.03
2023-04-08T11:02:24.549Z,99806.25
2023-04-08T11:04:56.006Z,99815.00
2023-04-08T11:07:24.118Z,99810.75
2023-04-08T11:09:52.785Z,99804.00
2023-04-08T11:12:22.431Z,99813.72
2023-04-08T11:14:53.210Z,99808.22
2023-04-08T11:17:21.456Z,99801.03
2023-04-08T11:19:49.786Z,99800.88
2023-04-08T11:22:18.728Z,99795.44
2023-04-08T11:24:47.314Z,99794.63
2023-04-08T11:27:15.969Z,99788.94
2023-04-08T11:29:46.232Z,99780.16
2023-04-08T11:32:14.493Z,99784.22
2023-04-08T11:34:43.158Z,99777.59
2023-04-08T11:37:11.445Z,99777.97
2023-04-08T11:39:44.116Z,99766.47
2023-04-08T11:42:28.143Z,99762.63
2023-04-08T11:44:57.958Z,99760.19
2023-04-08T11:47:33.526Z,99755.63
2023-04-08T11:50:03.145Z,99761.44
2023-04-08T11:52:48.599Z,99752.66
2023-04-08T11:55:25.025Z,99758.75
2023-04-08T11:57:53.650Z,99750.97
2023-04-08T12:00:24.774Z,99744.03
2023-04-08T12:02:53.706Z,99742.03
2023-04-08T12:05:22.102Z,99741.94
2023-04-08T12:07:50.178Z,99737.34
2023-04-08T12:10:18.562Z,99735.59
2023-04-08T12:12:46.637Z,99743.09
2023-04-08T12:15:14.684Z,99735.38
2023-04-08T12:17:44.742Z,99724.16
2023-04-08T12:20:13.803Z,99723.41
2023-04-08T12:22:42.038Z,99719.72
2023-04-08T12:25:10.844Z,99719.19
2023-04-08T12:27:38.982Z,99708.72
2023-04-08T12:30:08.176Z,99718.53
2023-04-08T12:32:36.294Z,99717.03
2023-04-08T12:35:06.416Z,99712.28
2023-04-08T12:37:34.543Z,99713.31
2023-04-08T12:40:02.842Z,99700.47
2023-04-08T12:42:31.339Z,99702.94
2023-04-08T12:44:59.484Z,99708.09
2023-04-08T12:47:27.678Z,99702.63
2023-04-08T12:49:55.965Z,99700.31
2023-04-08T12:52:25.462Z,99697.22
2023-04-08T12:54:53.698Z,99691.38
2023-04-08T12:57:21.825Z,99694.91
2023-04-08T12:59:50.032Z,99684.31
2023-04-08T13:02:18.263Z,99693.31
2023-04-08T13:04:46.386Z,99688.53
2023-04-08T13:07:14.477Z,99692.84
2023-04-08T13:09:45.462Z,99684.63
2023-04-08T13:12:14.641Z,99677.19
2023-04-08T13:14:42.850Z,99675.69
2023-04-08T13:17:11.286Z,99674.47
2023-04-08T13:19:39.470Z,99671.75
2023-04-08T13:22:07.591Z,99673.75
2023-04-08T13:24:35.830Z,99671.41
2023-04-08T13:27:05.332Z,99663.53
2023-04-08T13:29:33.517Z,99656.50
2023-04-08T13:32:02.188Z,99653.00
2023-04-08T13:34:30.519Z,99653.41
2023-04-08T13:36:58.641Z,99647.53
2023-04-08T13:39:27.330Z,99652.25
2023-04-08T13:41:56.664Z,99649.09
2023-04-08T13:44:26.641Z,99647.53
2023-04-08T13:46:55.228Z,99642.44
2023-04-08T13:49:24.170Z,99649.09
2023-04-08T13:51:52.466Z,99649.47
2023-04-08T13:54:20.738Z,99645.56
2023-04-08T13:56:48.836Z,99641.59
2023-04-08T13:59:17.031Z,99640.06
2023-04-08T14:01:46.628Z,99638.06
2023-04-08T14:04:15.026Z,99633.34
2023-04-08T14:06:44.020Z,99633.38
2023-04-08T14:09:13.275Z,99624.44
2023-04-08T14:11:41.597Z,99640.13
2023-04-08T14:14:09.772Z,99635.75
2023-04-08T14:16:37.958Z,99635.38
2023-04-08T14:19:07.554Z,99640.81
2023-04-08T14:21:35.748Z,99637.22
2023-04-08T14:24:03.926Z,99638.69
2023-04-08T14:26:35.828Z,99632.00
2023-04-08T14:29:05.699Z,99639.19
2023-04-08T14:31:34.503Z,99641.50
2023-04-08T14:34:03.297Z,99640.31
2023-04-08T14:36:33.050Z,99642.34
2023-04-08T14:39:01.843Z,99630.06
2023-04-08T14:41:30.210Z,99635.53
2023-04-08T14:43:58.363Z,99632.72
2023-04-08T14:46:29.272Z,99632.22
2023-04-08T14:48:58.885Z,99631.78
2023-04-08T14:51:27.170Z,99632.66
2023-04-08T14:53:57.034Z,99632.50
2023-04-08T14:56:25.198Z,99634.91
2023-04-08T14:58:53.840Z,99626.34
2023-04-08T15:01:22.239Z,99632.06
2023-04-08T15:03:50.535Z,99630.47
2023-04-08T15:06:20.967Z,99636.72
2023-04-08T15:08:49.408Z,99635.09
2023-04-08T15:11:21.113Z,99626.88
2023-04-08T15:13:49.477Z,99630.38
2023-04-08T15:16:17.619Z,99631.50
2023-04-08T15:18:46.123Z,99637.78
2023-04-08T15:21:14.409Z,99627.56
2023-04-08T15:23:43.636Z,99630.66
2023-04-08T15:26:11.811Z,99627.19
2023-04-08T15:28:41.726Z,99627.88
2023-04-08T15:31:10.178Z,99627.09
2023-04-08T15:33:41.587Z,99630.25
2023-04-08T15:36:09.875Z,99626.72
2023-04-08T15:38:38.445Z,99635.25
2023-04-08T15:41:06.634Z,99635.25
2023-04-08T15:43:34.985Z,99641.44
2023-04-08T15:46:04.651Z,99635.00
2023-04-08T15:48:32.888Z,99639.31
2023-04-08T15:51:08.383Z,99635.41
2023-04-08T15:53:36.829Z,99636.03
2023-04-08T15:56:04.928Z,99632.84
2023-04-08T15:58:32.977Z,99630.75
2023-04-08T16:01:01.339Z,99633.88
2023-04-08T16:03:31.156Z,99634.22
2023-04-08T16:06:01.197Z,99629.19
2023-04-08T16:08:29.590Z,99640.00
2023-04-08T16:11:02.639Z,99632.19
2023-04-08T16:13:31.184Z,99633.00
2023-04-08T16:15:59.828Z,99640.41
2023-04-08T16:18:28.338Z,99637.22
2023-04-08T16:20:58.297Z,99630.41
2023-04-08T16:23:26.706Z,99624.00
2023-04-08T16:25:55.116Z,99627.47
2023-04-08T16:28:23.515Z,99625.53
2023-04-08T16:30:51.841Z,99630.13
2023-04-08T16:33:24.101Z,99627.72
2023-04-08T16:35:52.599Z,99629.53
2023-04-08T16:38:22.435Z,99633.13
2023-04-08T16:40:50.538Z,99638.56
2023-04-08T16:43:18.936Z,99633.03
2023-04-08T16:45:47.125Z,99642.25
2023-04-08T16:48:15.618Z,99646.50
2023-04-08T16:50:43.928Z,99647.91
2023-04-08T16:53:12.004Z,99642.09
2023-04-08T16:55:41.634Z,99652.66
2023-04-08T16:58:09.856Z,99642.94
2023-04-08T17:00:38.113Z,99652.91
2023-04-08T17:03:06.629Z,99652.06
2023-04-08T17:05:34.981Z,99656.66
2023-04-08T17:08:03.628Z,99658.88
2023-04-08T17:10:31.875Z,99662.47
2023-04-08T17:13:01.740Z,99666.25
2023-04-08T17:15:30.070Z,99665.78
2023-04-08T17:17:58.304Z,99669.22
2023-04-08T17:20:28.099Z,99672.66
2023-04-08T17:22:57.493Z,99674.19
2023-04-08T17:25:25.686Z,99680.06
2023-04-08T17:27:54.059Z,99690.50
2023-04-08T17:30:23.841Z,99681.97
2023-04-08T17:32:52.248Z,99684.56
2023-04-08T17:35:20.692Z,99692.66
2023-04-08T17:37:50.457Z,99694.06
2023-04-08T17:40:19.112Z,99692.84
2023-04-08T17:42:47.584Z,99700.53
2023-04-08T17:45:15.939Z,99701.91
2023-04-08T17:47:45.681Z,99709.34
2023-04-08T17:50:13.950Z,99703.91
2023-04-08T17:52:44.299Z,99713.94
2023-04-08T17:55:12.469Z,99720.72
2023-04-08T17:57:40.594Z,99730.38
2023-04-08T18:00:09.839Z,99730.16
2023-04-08T18:02:39.252Z,99736.19
2023-04-08T18:05:10.172Z,99737.50
2023-04-08T18:07:38.354Z,99731.63
2023-04-08T18:10:07.567Z,99738.22
2023-04-08T18:12:35.837Z,99740.28
2023-04-08T18:15:04.027Z,99744.94
2023-04-08T18:17:32.229Z,99750.97
2023-04-08T18:20:00.506Z,99753.16
2023-04-08T18:22:30.178Z,99758.25
2023-04-08T18:24:58.555Z,99761.78
2023-04-08T18:27:26.679Z,99757.22
2023-04-08T18:29:55.274Z,99762.56
2023-04-08T18:32:23.544Z,99770.28
2023-04-08T18:34:53.131Z,99776.09
2023-04-08T18:37:21.911Z,99785.34
2023-04-08T18:39:51.723Z,99788.69
2023-04-08T18:42:19.992Z,99783.53
2023-04-08T18:44:50.073Z,99784.03
2023-04-08T18:47:18.862Z,99793.06
2023-04-08T18:49:46.948Z,99796.84
2023-04-08T18:52:15.081Z,99799.91
2023-04-08T18:54:43.297Z,99799.72
2023-04-08T18:57:13.099Z,99801.91
2023-04-08T18:59:41.259Z,99807.78
2023-04-08T19:02:09.496Z,99810.16
2023-04-08T19:04:38.592Z,99812.88
2023-04-08T19:07:06.810Z,99807.81
2023-04-08T19:09:35.087Z,99814.53
2023-04-08T19:12:03.252Z,99817.75
2023-04-08T19:14:32.835Z,99816.00
2023-04-08T19:17:01.075Z,99813.81
2023-04-08T19:19:29.338Z,99819.50
2023-04-08T19:21:57.559Z,99815.78
2023-04-08T19:24:25.820Z,99824.81
2023-04-08T19:26:54.230Z,99827.88
2023-04-08T19:29:23.479Z,99829.81
2023-04-08T19:31:53.073Z,99825.78
2023-04-08T19:34:21.569Z,99833.78
2023-04-08T19:36:49.802Z,99831.31
2023-04-08T19:39:18.728Z,99830.09
2023-04-08T19:41:47.155Z,99830.38
2023-04-08T19:44:15.992Z,99829.31
2023-04-08T19:46:44.159Z,99841.22
2023-04-08T19:49:13.801Z,99843.84
2023-04-08T19:51:42.066Z,99844.78
2023-04-08T19:54:10.388Z,99847.03
2023-04-08T19:56:38.502Z,99843.78
2023-04-08T19:59:06.981Z,99843.88
2023-04-08T20:01:36.143Z,99848.19
2023-04-08T20:04:05.737Z,99849.56
2023-04-08T20:06:36.118Z,99854.75
2023-04-08T20:09:06.048Z,99858.44
2023-04-08T20:11:34.227Z,99857.56
2023-04-08T20:14:02.351Z,99850.03
2023-04-08T20:16:31.113Z,99861.41
2023-04-08T20:18:59.522Z,99861.06
2023-04-08T20:21:27.952Z,99854.97
2023-04-08T20:23:57.907Z,99863.13
2023-04-08T20:26:26.258Z,99856.69
2023-04-08T20:28:56.990Z,99862.41
2023-04-08T20:31:26.857Z,99867.84
2023-04-08T20:33:55.629Z,99859.03
2023-04-08T20:36:24.799Z,99869.56
2023-04-08T20:38:53.620Z,99873.59
2023-04-08T20:41:26.037Z,99867.94
2023-04-08T20:43:55.600Z,99870.09
2023-04-08T20:46:24.663Z,99873.94
2023-04-08T20:48:54.214Z,99876.38
2023-04-08T20:51:22.797Z,99868.97
2023-04-08T20:53:52.790Z,99874.84
2023-04-08T20:56:22.960Z,99868.19
2023-04-08T20:58:51.698Z,99871.00
2023-04-08T21:01:20.058Z,99868.06
2023-04-08T21:03:48.402Z,99868.44
2023-04-08T21:06:19.688Z,99867.63
2023-04-08T21:08:48.881Z,99868.97
2023-04-08T21:11:19.044Z,99869.44
2023-04-08T21:13:49.216Z,99868.53
2023-04-08T21:16:18.087Z,99881.59
2023-04-08T21:18:46.166Z,99871.78
2023-04-08T21:21:14.453Z,99875.72
2023-04-08T21:23:43.177Z,99874.25
2023-04-08T21:26:14.703Z,99877.84
2023-04-08T21:28:44.199Z,99875.03
2023-04-08T21:31:14.766Z,99876.75
2023-04-08T21:33:43.114Z,99876.06
2023-04-08T21:36:11.405Z,99877.31
2023-04-08T21:38:39.672Z,99877.31
2023-04-08T21:41:07.842Z,99879.19
2023-04-08T21:43:37.097Z,99870.28
2023-04-08T21:46:06.173Z,99872.53
2023-04-08T21:48:36.172Z,99873.41
2023-04-08T21:51:07.060Z,99871.28
2023-04-08T21:53:35.222Z,99873.63
2023-04-08T21:56:03.433Z,99872.38
2023-04-08T21:58:31.513Z,99874.03
2023-04-08T22:00:59.624Z,99871.56
2023-04-08T22:03:27.842Z,99870.16
2023-04-08T22:05:59.754Z,99875.31
2023-04-08T22:08:27.957Z,99872.50
2023-04-08T22:10:56.083Z,99866.94
2023-04-08T22:13:24.225Z,99874.16
2023-04-08T22:15:52.512Z,99873.09
2023-04-08T22:18:20.684Z,99871.53
2023-04-08T22:20:48.958Z,99875.25
2023-04-08T22:23:18.749Z,99868.94
2023-04-08T22:25:50.218Z,99873.56
2023-04-08T22:28:18.539Z,99889.63
2023-04-08T22:30:47.198Z,99893.16
2023-04-08T22:33:15.423Z,99885.28
2023-04-08T22:35:43.808Z,99885.81
2023-04-08T22:38:11.979Z,99888.84
2023-04-08T22:40:41.503Z,99896.44
2023-04-08T22:43:09.764Z,99895.78
2023-04-08T22:45:38.213Z,99889.72
2023-04-08T22:48:06.796Z,99885.44
2023-04-08T22:50:34.899Z,99894.06
2023-04-08T22:53:06.351Z,99883.84
2023-04-08T22:55:34.697Z,99891.44
2023-04-08T22:58:04.278Z,99890.97
2023-04-08T23:00:32.403Z,99896.38
2023-04-08T23:03:04.719Z,99899.25
2023-04-08T23:05:33.632Z,99898.34
2023-04-08T23:08:01.802Z,99892.16
2023-04-08T23:10:29.852Z,99894.06
2023-04-08T23:12:57.964Z,99889.97
2023-04-08T23:15:27.489Z,99884.00
2023-04-08T23:17:55.881Z,99889.44
2023-04-08T23:20:24.061Z,99890.28
2023-04-08T23:22:52.972Z,99883.38
2023-04-08T23:25:21.365Z,99876.66
2023-04-08T23:27:49.636Z,99881.72
2023-04-08T23:30:17.817Z,99880.00
2023-04-08T23:32:47.415Z,99882.38
2023-04-08T23:35:16.642Z,99875.88
2023-04-08T23:37:44.876Z,99879.72
2023-04-08T23:40:13.524Z,99870.84
2023-04-08T23:42:41.686Z,99875.28
2023-04-08T23:45:10.555Z,99884.75
2023-04-08T23:47:38.847Z,99881.25
2023-04-08T23:50:09.872Z,99882.81
2023-04-08T23:52:38.022Z,99882.50
2023-04-08T23:55:06.863Z,99883.47
2023-04-08T23:57:35.028Z,99890.31
